Time;durP1;ratioP1;P1;durP2;ratioP2;P2;SDS_P1;SDS_P2;PMS_P1;PMS_P2;Temp;Humidity;BMP_temperature;BMP_pressure;BME280_temperature;BME280_humidity;BME280_pressure;Samples;Min_cycle;Max_cycle;Signal;HPM_P1;HPM_P2
2021/10/01 00:01:34;;;;;;;;;;;22.80;45.90;;;;;;1597415;73;589;-69
2021/10/01 00:03:36;;;;;;;;;;;22.90;46.10;;;;;;1592359;73;783;-70
2021/10/01 00:05:39;;;;;;;;;;;22.80;46.00;;;;;;1613860;73;683;-69
2021/10/01 00:07:41;;;;;;;;;;;22.90;46.00;;;;;;1596804;73;1120;-70
2021/10/01 00:09:43;;;;;;;;;;;22.80;46.00;;;;;;1620908;73;724;-70
2021/10/01 00:11:51;;;;;;;;;;;22.80;46.00;;;;;;1602552;73;775;-71
2021/10/01 00:13:48;;;;;;;;;;;22.80;46.00;;;;;;1589162;73;1055;-70
2021/10/01 00:15:50;;;;;;;;;;;22.80;46.00;;;;;;1591012;74;781;-70
2021/10/01 00:17:52;;;;;;;;;;;22.80;45.90;;;;;;1606560;73;1124;-71
2021/10/01 00:19:54;;;;;;;;;;;22.80;45.90;;;;;;1603291;73;1953;-70
2021/10/01 00:21:56;;;;;;;;;;;22.90;46.10;;;;;;1601464;73;716;-71
2021/10/01 00:23:58;;;;;;;;;;;22.90;46.00;;;;;;1590767;74;693;-70
2021/10/01 00:26:00;;;;;;;;;;;22.80;46.00;;;;;;1614184;73;742;-68
2021/10/01 00:28:02;;;;;;;;;;;22.80;46.00;;;;;;1604799;73;1120;-70
2021/10/01 00:30:04;;;;;;;;;;;22.80;46.00;;;;;;1597343;73;709;-71
2021/10/01 00:32:06;;;;;;;;;;;22.90;46.00;;;;;;1606728;73;666;-71
2021/10/01 00:34:08;;;;;;;;;;;22.90;46.10;;;;;;1591338;73;747;-70
2021/10/01 00:36:10;;;;;;;;;;;22.80;45.90;;;;;;1618875;73;716;-70
2021/10/01 00:38:12;;;;;;;;;;;22.80;45.90;;;;;;1604750;71;1105;-70
2021/10/01 00:40:14;;;;;;;;;;;22.90;46.00;;;;;;1609938;73;1927;-69
2021/10/01 00:42:15;;;;;;;;;;;22.80;45.80;;;;;;1601717;73;705;-68
2021/10/01 00:44:17;;;;;;;;;;;22.80;45.80;;;;;;1599272;73;645;-70
2021/10/01 00:46:19;;;;;;;;;;;22.80;45.90;;;;;;1618913;71;1113;-70
2021/10/01 00:48:21;;;;;;;;;;;22.80;45.80;;;;;;1616616;73;759;-71
2021/10/01 00:50:23;;;;;;;;;;;22.80;45.90;;;;;;1610746;73;706;-71
2021/10/01 00:52:25;;;;;;;;;;;22.80;45.90;;;;;;1613674;73;737;-72
2021/10/01 00:54:27;;;;;;;;;;;22.90;46.00;;;;;;1596476;73;707;-71
2021/10/01 00:56:48;;;;;;;;;;;22.90;46.00;;;;;;1612904;73;1157;-71
2021/10/01 00:58:50;;;;;;;;;;;22.80;46.00;;;;;;1601737;73;572;-71
2021/10/01 01:03:02;;;;;;;;;;;22.90;46.00;;;;;;1611662;73;941;-72
2021/10/01 01:05:04;;;;;;;;;;;22.80;45.90;;;;;;1605422;73;681;-71
2021/10/01 01:07:26;;;;;;;;;;;22.90;46.00;;;;;;1594797;73;1194;-72
2021/10/01 01:09:41;;;;;;;;;;;22.90;46.00;;;;;;1559598;75;1398;-72
2021/10/01 01:11:45;;;;;;;;;;;22.80;45.80;;;;;;1584617;75;774;-72
2021/10/01 01:13:48;;;;;;;;;;;22.80;45.90;;;;;;1579309;75;746;-72
2021/10/01 01:15:52;;;;;;;;;;;22.80;45.90;;;;;;1581750;75;1909;-72
2021/10/01 01:18:05;;;;;;;;;;;22.90;46.00;;;;;;1573136;75;1219;-70
2021/10/01 01:20:08;;;;;;;;;;;22.80;45.90;;;;;;1571862;75;1933;-71
2021/10/01 01:22:14;;;;;;;;;;;22.90;46.00;;;;;;1574869;75;906;-72
2021/10/01 01:24:34;;;;;;;;;;;22.80;45.90;;;;;;1570751;74;1877;-70
2021/10/01 01:26:53;;;;;;;;;;;22.80;46.00;;;;;;1579008;75;651;-71
2021/10/01 01:29:13;;;;;;;;;;;22.80;46.00;;;;;;1566091;74;754;-71
2021/10/01 01:31:33;;;;;;;;;;;22.80;45.90;;;;;;1578482;74;734;-71
2021/10/01 01:33:35;;;;;;;;;;;22.80;46.00;;;;;;1582256;74;832;-71
2021/10/01 01:35:37;;;;;;;;;;;22.80;46.00;;;;;;1583254;75;761;-72
2021/10/01 01:37:41;;;;;;;;;;;22.70;46.00;;;;;;1572772;75;1135;-72
2021/10/01 01:39:42;;;;;;;;;;;22.70;46.00;;;;;;1576350;75;1061;-72
2021/10/01 01:41:44;;;;;;;;;;;22.80;46.00;;;;;;1583261;75;1941;-71
2021/10/01 01:43:46;;;;;;;;;;;22.70;46.00;;;;;;1556210;76;612;-70
2021/10/01 01:45:48;;;;;;;;;;;22.80;46.00;;;;;;1590651;75;737;-70
2021/10/01 01:47:50;;;;;;;;;;;22.80;45.90;;;;;;1579731;73;1147;-71
2021/10/01 01:49:52;;;;;;;;;;;22.90;46.10;;;;;;1576458;75;646;-71
2021/10/01 01:51:54;;;;;;;;;;;22.80;46.00;;;;;;1585274;75;759;-71
2021/10/01 01:53:56;;;;;;;;;;;22.90;46.10;;;;;;1562580;76;725;-73
2021/10/01 01:55:57;;;;;;;;;;;22.70;46.00;;;;;;1566288;75;744;-74
2021/10/01 01:57:59;;;;;;;;;;;22.90;46.10;;;;;;1558106;74;1187;-73
2021/10/01 02:00:02;;;;;;;;;;;22.80;46.00;;;;;;1560936;74;768;-74
2021/10/01 02:02:03;;;;;;;;;;;22.80;46.00;;;;;;1559919;74;1927;-73
2021/10/01 02:04:05;;;;;;;;;;;22.70;46.00;;;;;;1562680;74;684;-73
2021/10/01 02:06:07;;;;;;;;;;;22.90;46.10;;;;;;1563335;74;737;-73
2021/10/01 02:08:09;;;;;;;;;;;22.80;45.90;;;;;;1545004;75;1132;-71
2021/10/01 02:10:11;;;;;;;;;;;22.80;45.90;;;;;;1547780;76;746;-72
2021/10/01 02:12:14;;;;;;;;;;;22.70;45.90;;;;;;1554753;76;709;-71
2021/10/01 02:14:17;;;;;;;;;;;22.70;45.90;;;;;;1560945;75;646;-68
2021/10/01 02:16:19;;;;;;;;;;;22.70;45.90;;;;;;1557851;75;1953;-71
2021/10/01 02:18:21;;;;;;;;;;;22.80;45.90;;;;;;1556827;75;1124;-71
2021/10/01 02:20:23;;;;;;;;;;;22.80;45.90;;;;;;1561217;75;1938;-72
2021/10/01 02:22:25;;;;;;;;;;;22.80;45.90;;;;;;1558525;75;831;-72
2021/10/01 02:24:28;;;;;;;;;;;22.70;45.90;;;;;;1561547;74;776;-72
2021/10/01 02:26:40;;;;;;;;;;;22.80;45.90;;;;;;1563523;75;829;-73
2021/10/01 02:28:43;;;;;;;;;;;22.80;45.90;;;;;;1557735;75;706;-73
2021/10/01 02:30:45;;;;;;;;;;;22.70;45.90;;;;;;1560397;75;761;-72
2021/10/01 02:32:48;;;;;;;;;;;22.70;45.90;;;;;;1559917;75;725;-72
2021/10/01 02:34:50;;;;;;;;;;;22.70;45.90;;;;;;1561092;75;788;-72
2021/10/01 02:36:52;;;;;;;;;;;22.80;45.90;;;;;;1555335;75;1148;-72
2021/10/01 02:38:54;;;;;;;;;;;22.80;45.90;;;;;;1555448;74;735;-72
2021/10/01 02:40:56;;;;;;;;;;;22.80;45.90;;;;;;1563095;75;1943;-72
2021/10/01 02:42:58;;;;;;;;;;;22.80;46.00;;;;;;1563303;75;728;-72
2021/10/01 02:45:00;;;;;;;;;;;22.80;45.90;;;;;;1560064;75;780;-72
2021/10/01 02:47:02;;;;;;;;;;;22.80;45.90;;;;;;1560123;75;1140;-72
2021/10/01 02:49:04;;;;;;;;;;;22.70;46.00;;;;;;1555818;75;803;-73
2021/10/01 02:51:07;;;;;;;;;;;22.70;46.00;;;;;;1561384;74;801;-76
2021/10/01 02:53:17;;;;;;;;;;;22.80;46.00;;;;;;1566607;74;703;-73
2021/10/01 02:55:22;;;;;;;;;;;22.80;45.90;;;;;;1554835;74;771;-73
2021/10/01 02:57:24;;;;;;;;;;;22.70;45.90;;;;;;1563306;74;1099;-74
2021/10/01 02:59:26;;;;;;;;;;;22.80;45.80;;;;;;1556892;74;681;-74
2021/10/01 03:01:29;;;;;;;;;;;22.80;45.80;;;;;;1562054;74;1954;-73
2021/10/01 03:03:35;;;;;;;;;;;22.70;45.80;;;;;;1553158;76;758;-74
2021/10/01 03:05:37;;;;;;;;;;;22.80;45.70;;;;;;1565063;74;1935;-67
2021/10/01 03:07:40;;;;;;;;;;;22.70;45.70;;;;;;1574484;75;1198;-68
2021/10/01 03:09:42;;;;;;;;;;;22.70;45.70;;;;;;1549089;76;792;-68
2021/10/01 03:11:44;;;;;;;;;;;22.70;45.70;;;;;;1546785;76;728;-68
2021/10/01 03:13:46;;;;;;;;;;;22.70;45.60;;;;;;1557546;74;778;-69
2021/10/01 03:15:52;;;;;;;;;;;22.80;45.60;;;;;;1560417;74;759;-68
2021/10/01 03:17:54;;;;;;;;;;;22.70;45.60;;;;;;1559524;75;1210;-67
2021/10/01 03:19:56;;;;;;;;;;;22.80;45.50;;;;;;1559750;74;694;-68
2021/10/01 03:21:57;;;;;;;;;;;22.70;45.50;;;;;;1561009;74;1938;-69
2021/10/01 03:23:59;;;;;;;;;;;22.80;45.50;;;;;;1544450;76;803;-69
2021/10/01 03:26:01;;;;;;;;;;;22.70;45.40;;;;;;1558945;76;691;-69
2021/10/01 03:28:03;;;;;;;;;;;22.60;45.40;;;;;;1541161;76;1142;-69
2021/10/01 03:30:06;;;;;;;;;;;22.80;45.40;;;;;;1564074;75;725;-70
2021/10/01 03:32:08;;;;;;;;;;;22.60;45.20;;;;;;1555096;75;854;-67
2021/10/01 03:34:10;;;;;;;;;;;22.60;45.10;;;;;;1540496;75;1379;-68
2021/10/01 03:36:12;;;;;;;;;;;22.70;45.20;;;;;;1548577;76;784;-68
2021/10/01 03:38:14;;;;;;;;;;;22.60;45.10;;;;;;1554821;74;1141;-70
2021/10/01 03:40:17;;;;;;;;;;;22.70;45.20;;;;;;1556345;74;795;-67
2021/10/01 03:42:19;;;;;;;;;;;22.60;45.10;;;;;;1560626;74;1904;-67
2021/10/01 03:44:21;;;;;;;;;;;22.60;45.00;;;;;;1569400;74;706;-65
2021/10/01 03:46:23;;;;;;;;;;;22.70;45.20;;;;;;1561171;74;724;-68
2021/10/01 03:48:25;;;;;;;;;;;22.70;45.20;;;;;;1580906;73;1127;-68
2021/10/01 03:50:27;;;;;;;;;;;22.60;45.20;;;;;;1584352;75;778;-67
2021/10/01 03:52:29;;;;;;;;;;;22.60;45.20;;;;;;1581156;75;785;-64
2021/10/01 03:54:31;;;;;;;;;;;22.70;45.20;;;;;;1582546;74;763;-66
2021/10/01 03:56:33;;;;;;;;;;;22.60;45.10;;;;;;1585567;75;791;-69
2021/10/01 03:58:35;;;;;;;;;;;22.60;45.20;;;;;;1578969;75;1175;-66
2021/10/01 04:00:37;;;;;;;;;;;22.70;45.20;;;;;;1583022;75;769;-67
2021/10/01 04:02:39;;;;;;;;;;;22.60;45.10;;;;;;1582714;75;1949;-67
2021/10/01 04:04:40;;;;;;;;;;;22.60;45.10;;;;;;1581381;75;785;-69
2021/10/01 04:06:42;;;;;;;;;;;22.60;44.90;;;;;;1572904;73;1163;-68
2021/10/01 04:08:46;;;;;;;;;;;22.60;45.00;;;;;;1556991;76;788;-68
2021/10/01 04:10:48;;;;;;;;;;;22.60;45.00;;;;;;1574361;75;1060;-68
2021/10/01 04:12:50;;;;;;;;;;;22.50;45.00;;;;;;1570190;75;736;-68
2021/10/01 04:14:52;;;;;;;;;;;22.60;45.10;;;;;;1574602;75;770;-68
2021/10/01 04:16:53;;;;;;;;;;;22.50;45.00;;;;;;1571160;74;1158;-68
2021/10/01 04:18:55;;;;;;;;;;;22.60;45.00;;;;;;1570818;75;716;-69
2021/10/01 04:20:57;;;;;;;;;;;22.50;44.90;;;;;;1575053;75;783;-68
2021/10/01 04:22:59;;;;;;;;;;;22.60;45.00;;;;;;1578617;74;1949;-68
2021/10/01 04:25:01;;;;;;;;;;;22.50;45.00;;;;;;1576919;75;778;-68
2021/10/01 04:27:03;;;;;;;;;;;22.50;45.00;;;;;;1560047;74;1170;-68
2021/10/01 04:29:05;;;;;;;;;;;22.60;45.10;;;;;;1577532;74;739;-68
2021/10/01 04:31:07;;;;;;;;;;;22.50;45.00;;;;;;1577085;75;700;-67
2021/10/01 04:33:24;;;;;;;;;;;22.50;45.00;;;;;;1574908;75;770;-66
2021/10/01 04:35:22;;;;;;;;;;;22.60;45.00;;;;;;1570664;75;1524;-67
2021/10/01 04:37:24;;;;;;;;;;;22.60;45.00;;;;;;1576715;74;1096;-67
2021/10/01 04:39:25;;;;;;;;;;;22.50;45.10;;;;;;1565401;75;730;-67
2021/10/01 04:41:28;;;;;;;;;;;22.50;45.10;;;;;;1572784;74;1943;-68
2021/10/01 04:43:29;;;;;;;;;;;22.50;45.00;;;;;;1574410;75;785;-69
2021/10/01 04:45:31;;;;;;;;;;;22.50;45.00;;;;;;1576593;75;760;-68
2021/10/01 04:47:33;;;;;;;;;;;22.50;45.00;;;;;;1573345;75;1136;-68
2021/10/01 04:49:35;;;;;;;;;;;22.50;44.90;;;;;;1570873;75;778;-68
2021/10/01 04:51:37;;;;;;;;;;;22.50;45.00;;;;;;1569536;75;671;-68
2021/10/01 04:53:39;;;;;;;;;;;22.50;44.90;;;;;;1572326;75;779;-66
2021/10/01 04:55:41;;;;;;;;;;;22.50;44.80;;;;;;1561588;75;781;-67
2021/10/01 04:57:43;;;;;;;;;;;22.60;44.80;;;;;;1563752;75;1143;-68
2021/10/01 04:59:44;;;;;;;;;;;22.60;44.90;;;;;;1573345;75;1064;-67
2021/10/01 05:01:46;;;;;;;;;;;22.60;44.90;;;;;;1569192;75;1932;-67
2021/10/01 05:03:48;;;;;;;;;;;22.60;44.90;;;;;;1572903;75;724;-68
2021/10/01 05:05:50;;;;;;;;;;;22.60;44.90;;;;;;1562885;75;720;-68
2021/10/01 05:07:52;;;;;;;;;;;22.60;45.00;;;;;;1557486;75;1155;-68
2021/10/01 05:09:54;;;;;;;;;;;22.50;45.00;;;;;;1553498;76;712;-69
2021/10/01 05:11:56;;;;;;;;;;;22.60;45.10;;;;;;1523107;76;744;-69
2021/10/01 05:13:58;;;;;;;;;;;22.50;45.10;;;;;;1560146;74;776;-68
2021/10/01 05:16:02;;;;;;;;;;;22.60;45.00;;;;;;1556965;74;748;-68
2021/10/01 05:18:03;;;;;;;;;;;22.50;45.00;;;;;;1569172;74;1625;-68
2021/10/01 05:20:05;;;;;;;;;;;22.60;45.00;;;;;;1565165;74;705;-68
2021/10/01 05:22:07;;;;;;;;;;;22.50;45.00;;;;;;1557851;74;1919;-67
2021/10/01 05:24:12;;;;;;;;;;;22.50;45.00;;;;;;1567039;75;798;-68
2021/10/01 05:26:13;;;;;;;;;;;22.50;44.80;;;;;;1562136;76;1664;-71
2021/10/01 05:28:14;;;;;;;;;;;22.60;44.70;;;;;;1561552;74;1171;-68
2021/10/01 05:30:16;;;;;;;;;;;22.60;44.70;;;;;;1551545;74;796;-70
2021/10/01 05:32:18;;;;;;;;;;;22.60;44.90;;;;;;1559696;75;814;-69
2021/10/01 05:34:20;;;;;;;;;;;22.50;44.90;;;;;;1554889;75;936;-68
2021/10/01 05:36:22;;;;;;;;;;;22.50;45.00;;;;;;1567067;75;786;-68
2021/10/01 05:38:29;;;;;;;;;;;22.50;45.00;;;;;;1574572;74;1105;-69
2021/10/01 05:40:30;;;;;;;;;;;22.50;44.90;;;;;;1575396;74;1651;-68
2021/10/01 05:42:32;;;;;;;;;;;22.50;44.90;;;;;;1573786;75;1973;-68
2021/10/01 05:44:34;;;;;;;;;;;22.50;44.90;;;;;;1573181;75;749;-70
2021/10/01 05:46:40;;;;;;;;;;;22.60;44.80;;;;;;1573406;75;970;-69
2021/10/01 05:48:43;;;;;;;;;;;22.50;44.80;;;;;;1572355;75;1674;-70
2021/10/01 05:50:44;;;;;;;;;;;22.50;44.70;;;;;;1568360;75;1669;-70
2021/10/01 05:52:56;;;;;;;;;;;22.40;44.60;;;;;;1573165;75;737;-70
2021/10/01 05:54:55;;;;;;;;;;;22.50;44.70;;;;;;1573183;75;1695;-70
2021/10/01 05:56:57;;;;;;;;;;;22.40;44.60;;;;;;1563793;75;1151;-70
2021/10/01 05:58:59;;;;;;;;;;;22.40;44.60;;;;;;1568015;75;725;-70
2021/10/01 06:01:01;;;;;;;;;;;22.40;44.60;;;;;;1572215;75;789;-70
2021/10/01 06:03:03;;;;;;;;;;;22.50;44.70;;;;;;1576545;75;1922;-68
2021/10/01 06:05:05;;;;;;;;;;;22.40;44.60;;;;;;1576360;75;683;-71
2021/10/01 06:07:07;;;;;;;;;;;22.40;44.60;;;;;;1576613;74;1164;-69
2021/10/01 06:09:13;;;;;;;;;;;22.40;44.60;;;;;;1571856;75;797;-69
2021/10/01 06:11:15;;;;;;;;;;;22.40;44.50;;;;;;1576351;75;673;-68
2021/10/01 06:13:17;;;;;;;;;;;22.40;44.50;;;;;;1574347;75;750;-69
2021/10/01 06:15:19;;;;;;;;;;;22.40;44.60;;;;;;1576543;75;744;-69
2021/10/01 06:17:21;;;;;;;;;;;22.40;44.30;;;;;;1573300;75;1103;-67
2021/10/01 06:19:23;;;;;;;;;;;22.40;43.70;;;;;;1575034;75;811;-66
2021/10/01 06:21:24;;;;;;;;;;;22.40;43.50;;;;;;1572340;75;763;-66
2021/10/01 06:23:33;;;;;;;;;;;22.40;43.30;;;;;;1576083;75;1945;-69
2021/10/01 06:25:30;;;;;;;;;;;22.40;43.10;;;;;;1575794;75;1618;-69
2021/10/01 06:27:32;;;;;;;;;;;22.30;43.00;;;;;;1570185;74;1198;-69
2021/10/01 06:29:34;;;;;;;;;;;22.30;42.90;;;;;;1573559;75;784;-68
2021/10/01 06:31:35;;;;;;;;;;;22.30;42.80;;;;;;1571235;75;727;-69
2021/10/01 06:33:38;;;;;;;;;;;22.30;42.70;;;;;;1572685;75;786;-69
2021/10/01 06:35:40;;;;;;;;;;;22.20;42.50;;;;;;1571668;75;787;-68
2021/10/01 06:37:41;;;;;;;;;;;22.30;42.50;;;;;;1564851;75;1171;-68
2021/10/01 06:39:43;;;;;;;;;;;22.20;42.30;;;;;;1572288;74;724;-71
2021/10/01 06:41:45;;;;;;;;;;;22.30;42.30;;;;;;1575057;75;667;-68
2021/10/01 06:43:47;;;;;;;;;;;22.30;42.60;;;;;;1574330;75;1945;-70
2021/10/01 06:45:52;;;;;;;;;;;22.30;42.80;;;;;;1577211;75;704;-70
2021/10/01 06:50:32;;;;;;;;;;;22.30;43.10;;;;;;1562851;76;862;-71
2021/10/01 08:19:44;;;;;;;;;;;22.90;44.10;;;;;;1601218;74;1622;-58
2021/10/01 08:21:46;;;;;;;;;;;22.90;44.10;;;;;;1599296;74;714;-56
2021/10/01 08:23:48;;;;;;;;;;;23.00;44.00;;;;;;1600985;73;1922;-56
2021/10/01 08:25:50;;;;;;;;;;;23.00;44.00;;;;;;1597675;74;673;-58
2021/10/01 08:27:52;;;;;;;;;;;23.00;43.90;;;;;;1598256;74;678;-58
2021/10/01 08:29:54;;;;;;;;;;;23.00;43.90;;;;;;1598300;74;684;-57
2021/10/01 08:32:02;;;;;;;;;;;23.00;43.80;;;;;;1600685;74;716;-56
2021/10/01 08:34:04;;;;;;;;;;;23.00;43.80;;;;;;1601939;73;1075;-58
2021/10/01 08:36:06;;;;;;;;;;;23.10;43.90;;;;;;1599450;74;751;-59
2021/10/01 08:38:07;;;;;;;;;;;23.10;43.80;;;;;;1601097;74;724;-58
2021/10/01 08:40:10;;;;;;;;;;;23.10;43.80;;;;;;1596642;74;718;-57
2021/10/01 08:42:11;;;;;;;;;;;23.10;43.60;;;;;;1600592;73;663;-59
2021/10/01 08:44:13;;;;;;;;;;;23.10;43.60;;;;;;1601137;73;1930;-59
2021/10/01 08:46:15;;;;;;;;;;;23.20;43.50;;;;;;1595949;73;706;-58
2021/10/01 08:48:18;;;;;;;;;;;23.20;43.40;;;;;;1595221;73;709;-57
2021/10/01 08:50:20;;;;;;;;;;;23.30;43.50;;;;;;1598859;73;733;-57
2021/10/01 08:52:22;;;;;;;;;;;23.20;43.30;;;;;;1597663;73;756;-58
2021/10/01 08:54:25;;;;;;;;;;;23.20;43.30;;;;;;1600841;73;1118;-59
2021/10/01 08:56:26;;;;;;;;;;;23.30;43.30;;;;;;1601201;73;674;-59
2021/10/01 08:58:28;;;;;;;;;;;23.30;43.30;;;;;;1594025;73;817;-59
2021/10/01 09:00:31;;;;;;;;;;;23.20;43.20;;;;;;1601167;73;671;-59
2021/10/01 09:02:33;;;;;;;;;;;23.30;43.10;;;;;;1600445;73;1903;-59
2021/10/01 09:04:35;;;;;;;;;;;23.30;43.10;;;;;;1600286;73;1138;-58
2021/10/01 09:06:37;;;;;;;;;;;23.30;43.10;;;;;;1599287;73;670;-59
2021/10/01 09:08:56;;;;;;;;;;;23.30;43.00;;;;;;1594841;73;674;-58
2021/10/01 09:11:06;;;;;;;;;;;23.30;43.00;;;;;;1598469;73;2014;-59
2021/10/01 09:13:09;;;;;;;;;;;23.30;43.00;;;;;;1593156;73;765;-57
2021/10/01 09:15:11;;;;;;;;;;;23.40;42.90;;;;;;1600253;73;1150;-58
2021/10/01 09:17:14;;;;;;;;;;;23.40;42.90;;;;;;1595849;73;636;-58
2021/10/01 09:19:16;;;;;;;;;;;23.40;42.80;;;;;;1600923;73;702;-57
2021/10/01 09:21:19;;;;;;;;;;;23.50;42.90;;;;;;1568325;75;719;-57
2021/10/01 09:23:23;;;;;;;;;;;23.50;42.80;;;;;;1566299;75;1934;-59
2021/10/01 09:25:24;;;;;;;;;;;23.50;42.80;;;;;;1591832;73;1613;-58
2021/10/01 09:27:35;;;;;;;;;;;23.50;42.80;;;;;;1604246;74;710;-58
2021/10/01 09:29:37;;;;;;;;;;;23.50;42.80;;;;;;1595820;74;817;-59
2021/10/01 09:31:43;;;;;;;;;;;23.50;42.80;;;;;;1597505;73;771;-57
2021/10/01 09:33:45;;;;;;;;;;;23.50;42.80;;;;;;1594642;73;1101;-57
2021/10/01 09:35:47;;;;;;;;;;;23.50;42.80;;;;;;1598411;74;704;-57
2021/10/01 09:37:49;;;;;;;;;;;23.50;42.70;;;;;;1594966;74;697;-59
2021/10/01 09:39:52;;;;;;;;;;;23.50;42.70;;;;;;1596863;74;769;-57
2021/10/01 09:41:53;;;;;;;;;;;23.60;42.70;;;;;;1600812;74;749;-58
2021/10/01 09:44:00;;;;;;;;;;;23.50;42.70;;;;;;1598866;73;1941;-58
2021/10/01 09:46:03;;;;;;;;;;;23.50;42.60;;;;;;1597325;74;722;-58
2021/10/01 09:48:05;;;;;;;;;;;23.50;42.60;;;;;;1600127;74;1009;-60
2021/10/01 09:50:09;;;;;;;;;;;23.50;42.60;;;;;;1600818;73;736;-57
2021/10/01 09:52:12;;;;;;;;;;;23.60;42.60;;;;;;1599088;73;644;-57
2021/10/01 09:54:14;;;;;;;;;;;23.60;42.60;;;;;;1593851;73;1146;-57
2021/10/01 09:56:29;;;;;;;;;;;23.60;42.60;;;;;;1600744;74;644;-58
2021/10/01 09:58:31;;;;;;;;;;;23.60;42.60;;;;;;1597124;74;675;-58
2021/10/01 10:00:53;;;;;;;;;;;23.60;42.60;;;;;;1595866;74;780;-58
2021/10/01 10:02:55;;;;;;;;;;;23.60;42.50;;;;;;1593700;74;1909;-57
2021/10/01 10:04:57;;;;;;;;;;;23.60;42.60;;;;;;1598700;73;1150;-57
2021/10/01 10:07:00;;;;;;;;;;;23.50;42.50;;;;;;1597388;74;784;-57
2021/10/01 10:09:02;;;;;;;;;;;23.60;42.50;;;;;;1601933;74;1758;-57
2021/10/01 10:11:05;;;;;;;;;;;23.50;42.60;;;;;;1603693;74;714;-57
2021/10/01 10:13:08;;;;;;;;;;;23.60;42.60;;;;;;1587402;74;752;-58
2021/10/01 10:15:12;;;;;;;;;;;23.60;42.60;;;;;;1601358;73;1154;-57
2021/10/01 10:17:14;;;;;;;;;;;23.50;42.60;;;;;;1599229;74;1695;-57
2021/10/01 10:19:20;;;;;;;;;;;23.50;42.60;;;;;;1590408;74;730;-58
2021/10/01 10:21:20;;;;;;;;;;;23.50;42.60;;;;;;1600838;74;1594;-57
2021/10/01 10:23:22;;;;;;;;;;;23.50;42.70;;;;;;1599667;74;1936;-57
2021/10/01 10:25:24;;;;;;;;;;;23.50;42.80;;;;;;1600929;73;1114;-59
2021/10/01 10:27:26;;;;;;;;;;;23.50;42.80;;;;;;1600412;74;687;-57
2021/10/01 10:29:27;;;;;;;;;;;23.50;42.80;;;;;;1600636;74;804;-57
2021/10/01 10:31:30;;;;;;;;;;;23.50;42.80;;;;;;1598281;74;803;-57
2021/10/01 10:33:39;;;;;;;;;;;23.50;42.90;;;;;;1594959;74;817;-57
2021/10/01 10:35:41;;;;;;;;;;;23.50;43.00;;;;;;1594634;74;693;-57
2021/10/01 10:37:47;;;;;;;;;;;23.50;43.00;;;;;;1585394;74;788;-57
2021/10/01 10:39:49;;;;;;;;;;;23.50;43.10;;;;;;1598230;74;691;-57
2021/10/01 10:42:02;;;;;;;;;;;23.50;43.10;;;;;;1594476;74;684;-57
2021/10/01 10:44:04;;;;;;;;;;;23.50;43.10;;;;;;1599882;73;1929;-57
2021/10/01 10:46:06;;;;;;;;;;;23.50;43.10;;;;;;1599586;73;711;-56
2021/10/01 10:48:10;;;;;;;;;;;23.40;43.00;;;;;;1604995;73;725;-57
2021/10/01 10:50:25;;;;;;;;;;;23.50;43.10;;;;;;1557889;73;1601;-57
2021/10/01 10:52:27;;;;;;;;;;;23.50;43.20;;;;;;1603083;73;751;-57
2021/10/01 10:54:30;;;;;;;;;;;23.40;43.10;;;;;;1603140;73;1154;-57
2021/10/01 10:56:32;;;;;;;;;;;23.40;43.10;;;;;;1588796;73;725;-58
2021/10/01 10:58:37;;;;;;;;;;;23.40;43.10;;;;;;1600160;73;686;-60
2021/10/01 11:00:41;;;;;;;;;;;23.40;43.10;;;;;;1602120;73;811;-58
2021/10/01 11:02:47;;;;;;;;;;;23.50;43.40;;;;;;1609849;72;1578;-58
2021/10/01 11:04:49;;;;;;;;;;;23.40;43.40;;;;;;1601794;73;1929;-59
2021/10/01 11:06:51;;;;;;;;;;;23.40;43.60;;;;;;1603375;73;720;-58
2021/10/01 11:09:12;;;;;;;;;;;23.40;44.00;;;;;;1605574;73;827;-57
2021/10/01 11:11:34;;;;;;;;;;;23.50;44.40;;;;;;1607295;72;638;-59
2021/10/01 11:13:36;;;;;;;;;;;23.40;44.50;;;;;;1568593;74;713;-57
2021/10/01 11:15:38;;;;;;;;;;;23.40;44.70;;;;;;1569531;74;1107;-57
2021/10/01 11:17:40;;;;;;;;;;;23.50;45.00;;;;;;1533817;76;791;-57
2021/10/01 11:19:49;;;;;;;;;;;23.40;44.90;;;;;;1540044;76;1052;-57
2021/10/01 11:21:51;;;;;;;;;;;23.40;45.00;;;;;;1569308;74;712;-57
2021/10/01 11:24:00;;;;;;;;;;;23.40;45.00;;;;;;1599432;72;1937;-57
2021/10/01 11:26:02;;;;;;;;;;;23.40;45.00;;;;;;1611482;73;708;-57
2021/10/01 11:28:04;;;;;;;;;;;23.40;45.00;;;;;;1608689;72;774;-59
2021/10/01 11:30:07;;;;;;;;;;;23.30;44.90;;;;;;1601510;73;734;-58
2021/10/01 11:32:11;;;;;;;;;;;23.50;45.10;;;;;;1603152;73;1796;-57
2021/10/01 11:34:13;;;;;;;;;;;23.30;44.90;;;;;;1598198;73;1823;-58
2021/10/01 11:36:15;;;;;;;;;;;23.40;44.90;;;;;;1603477;72;791;-58
2021/10/01 11:38:20;;;;;;;;;;;23.40;45.00;;;;;;1600369;73;676;-58
2021/10/01 11:40:26;;;;;;;;;;;23.30;44.90;;;;;;1601974;73;601;-58
2021/10/01 11:42:29;;;;;;;;;;;23.50;45.00;;;;;;1600957;73;766;-57
2021/10/01 11:44:31;;;;;;;;;;;23.40;45.00;;;;;;1604606;72;1936;-58
2021/10/01 11:46:37;;;;;;;;;;;23.40;45.10;;;;;;1600056;73;748;-58
2021/10/01 11:48:39;;;;;;;;;;;23.50;45.30;;;;;;1605541;73;788;-59
2021/10/01 11:50:45;;;;;;;;;;;23.40;45.50;;;;;;1567348;74;707;-58
2021/10/01 11:52:48;;;;;;;;;;;23.40;45.70;;;;;;1571057;74;723;-58
2021/10/01 11:54:51;;;;;;;;;;;23.50;46.30;;;;;;1543281;75;1136;-57
2021/10/01 11:56:54;;;;;;;;;;;23.50;46.80;;;;;;1599725;73;785;-59
2021/10/01 11:58:56;;;;;;;;;;;23.60;47.10;;;;;;1597935;72;836;-60
2021/10/01 12:01:05;;;;;;;;;;;23.60;47.90;;;;;;1598322;72;794;-60
2021/10/01 12:03:09;;;;;;;;;;;23.50;49.20;;;;;;1571230;74;1813;-57
2021/10/01 12:05:22;;;;;;;;;;;23.60;49.30;;;;;;1568336;74;2188;-60
2021/10/01 12:07:23;;;;;;;;;;;23.60;49.50;;;;;;1566270;74;737;-58
2021/10/01 12:09:25;;;;;;;;;;;23.60;50.10;;;;;;1564258;74;655;-58
2021/10/01 12:11:29;;;;;;;;;;;23.70;50.70;;;;;;1572164;74;724;-58
2021/10/01 12:13:31;;;;;;;;;;;23.70;51.30;;;;;;1573955;74;832;-60
2021/10/01 12:15:37;;;;;;;;;;;23.70;51.50;;;;;;1535324;75;1094;-59
2021/10/01 12:17:39;;;;;;;;;;;23.80;51.80;;;;;;1563324;74;814;-59
2021/10/01 12:19:41;;;;;;;;;;;23.70;52.20;;;;;;1567277;74;725;-60
2021/10/01 12:21:43;;;;;;;;;;;23.70;52.60;;;;;;1572169;74;720;-59
2021/10/01 12:23:45;;;;;;;;;;;23.80;52.60;;;;;;1575347;74;1935;-57
2021/10/01 12:25:47;;;;;;;;;;;23.70;52.30;;;;;;1603498;72;660;-58
2021/10/01 12:27:50;;;;;;;;;;;23.70;52.20;;;;;;1600501;73;712;-59
2021/10/01 12:29:52;;;;;;;;;;;23.70;52.20;;;;;;1613047;72;698;-58
2021/10/01 12:31:55;;;;;;;;;;;23.70;52.10;;;;;;1602583;72;1066;-58
2021/10/01 12:33:58;;;;;;;;;;;23.70;51.90;;;;;;1604125;73;1095;-57
2021/10/01 12:36:00;;;;;;;;;;;23.70;51.70;;;;;;1599936;73;860;-61
2021/10/01 12:38:02;;;;;;;;;;;23.70;51.50;;;;;;1602146;73;729;-58
2021/10/01 12:40:04;;;;;;;;;;;23.60;51.30;;;;;;1599977;73;683;-59
2021/10/01 12:42:07;;;;;;;;;;;23.60;51.00;;;;;;1602817;73;728;-57
2021/10/01 12:44:10;;;;;;;;;;;23.60;50.90;;;;;;1598182;73;1929;-57
2021/10/01 12:46:12;;;;;;;;;;;23.70;50.90;;;;;;1604933;72;876;-58
2021/10/01 12:48:17;;;;;;;;;;;23.60;50.70;;;;;;1604002;73;705;-59
2021/10/01 12:50:21;;;;;;;;;;;23.60;50.60;;;;;;1604587;73;681;-59
2021/10/01 12:52:25;;;;;;;;;;;23.60;50.50;;;;;;1580575;73;773;-59
2021/10/01 12:54:28;;;;;;;;;;;23.60;50.30;;;;;;1600426;72;1157;-58
2021/10/01 12:56:29;;;;;;;;;;;23.50;50.20;;;;;;1598148;72;717;-59
2021/10/01 12:58:31;;;;;;;;;;;23.50;50.10;;;;;;1590011;71;3097;-58
2021/10/01 13:00:37;;;;;;;;;;;23.50;49.90;;;;;;1581428;74;683;-58
2021/10/01 13:02:39;;;;;;;;;;;23.50;49.70;;;;;;1538347;75;1460;-58
2021/10/01 13:04:48;;;;;;;;;;;23.50;49.60;;;;;;1504744;78;1916;-60
2021/10/01 13:06:50;;;;;;;;;;;23.50;49.50;;;;;;1562987;74;800;-59
2021/10/01 13:08:52;;;;;;;;;;;23.50;49.40;;;;;;1567732;74;901;-58
2021/10/01 13:10:55;;;;;;;;;;;23.40;49.10;;;;;;1564052;74;722;-59
2021/10/01 13:13:01;;;;;;;;;;;23.40;49.00;;;;;;1561359;74;702;-61
2021/10/01 13:15:13;;;;;;;;;;;23.40;48.80;;;;;;1560707;74;1569;-60
2021/10/01 13:17:22;;;;;;;;;;;23.30;48.70;;;;;;1562808;74;818;-63
2021/10/01 13:19:23;;;;;;;;;;;23.30;48.60;;;;;;1557364;74;1101;-60
2021/10/01 13:21:25;;;;;;;;;;;23.30;48.60;;;;;;1555573;74;815;-63
2021/10/01 13:23:30;;;;;;;;;;;23.30;48.50;;;;;;1565659;74;807;-59
2021/10/01 13:25:34;;;;;;;;;;;23.30;48.40;;;;;;1568273;74;1918;-61
2021/10/01 13:27:35;;;;;;;;;;;23.30;48.30;;;;;;1565071;74;1937;-64
2021/10/01 13:29:37;;;;;;;;;;;23.20;48.10;;;;;;1568453;74;781;-59
2021/10/01 13:31:43;;;;;;;;;;;23.30;48.20;;;;;;1568436;74;740;-59
2021/10/01 13:33:45;;;;;;;;;;;23.20;48.00;;;;;;1566616;74;1131;-61
2021/10/01 13:35:47;;;;;;;;;;;23.30;48.00;;;;;;1564087;74;808;-60
2021/10/01 13:37:49;;;;;;;;;;;23.20;47.80;;;;;;1564860;74;790;-62
2021/10/01 13:39:50;;;;;;;;;;;23.20;47.70;;;;;;1566518;74;792;-63
2021/10/01 13:41:52;;;;;;;;;;;23.20;47.70;;;;;;1567326;74;756;-61
2021/10/01 13:43:54;;;;;;;;;;;23.20;47.60;;;;;;1559221;74;1163;-59
2021/10/01 13:45:56;;;;;;;;;;;23.20;47.50;;;;;;1562539;74;1947;-59
2021/10/01 13:47:58;;;;;;;;;;;23.20;47.30;;;;;;1564007;74;821;-59